Terminal Aerodrome Forecast
Issued by NWS

Current Version | Previous Version | Text Only | Print | Product List | Glossary On
Versions: 1 2 3 4 5 6 7 8 9 10 11 12 13 14 15 16 17 18
872
FTUS46 KSEW 240702 AAA
TAFPAE
TAF AMD
KPAE 240702Z 2407/2506 31010KT P6SM SCT022 SCT050
      TEMPO 2407/2411 SCT022 BKN050
     FM241100 19008KT P6SM SCT022 BKN050
     FM241800 24007KT P6SM SCT028 SCT050
     FM242100 34006KT P6SM SCT050
     FM250300 VRB03KT P6SM SCT090=

USA.gov is the U.S. government's official web portal to all federal, state and local government web resources and services.